Time;durP1;ratioP1;P1;durP2;ratioP2;P2;SDS_P1;SDS_P2;PMS_P1;PMS_P2;Temp;Humidity;BMP_temperature;BMP_pressure;BME280_temperature;BME280_humidity;BME280_pressure;Samples;Min_cycle;Max_cycle;Signal;HPM_P1;HPM_P2
2023/10/02 00:02:05;;;;;;;7.90;4.93;;;;;;;;;;5113968;28;20214;-91
2023/10/02 00:04:36;;;;;;;5.13;4.13;;;;;;;;;;5124039;27;20191;-92
2023/10/02 00:07:06;;;;;;;6.28;4.15;;;;;;;;;;5119017;27;20213;-91
2023/10/02 00:09:35;;;;;;;4.68;3.75;;;;;;;;;;5113126;27;20227;-93
2023/10/02 00:12:11;;;;;;;6.47;4.80;;;;;;;;;;5113576;28;20610;-92
2023/10/02 00:14:38;;;;;;;9.02;5.68;;;;;;;;;;5112917;28;20230;-91
2023/10/02 00:17:07;;;;;;;6.50;4.38;;;;;;;;;;5114721;28;20668;-91
2023/10/02 00:19:39;;;;;;;5.55;4.22;;;;;;;;;;5114317;28;20269;-91
2023/10/02 00:22:09;;;;;;;4.28;3.85;;;;;;;;;;5117529;28;20290;-92
2023/10/02 00:24:39;;;;;;;5.53;4.38;;;;;;;;;;5113337;28;20283;-91
2023/10/02 00:27:08;;;;;;;5.38;3.85;;;;;;;;;;5113098;28;20238;-92
2023/10/02 00:29:50;;;;;;;6.68;4.53;;;;;;;;;;5112973;28;20302;-91
2023/10/02 00:32:19;;;;;;;6.22;4.28;;;;;;;;;;5119808;28;20187;-91
2023/10/02 00:34:50;;;;;;;6.45;4.15;;;;;;;;;;5125025;28;20209;-91
2023/10/02 00:37:18;;;;;;;8.05;4.68;;;;;;;;;;5129831;28;20206;-92
2023/10/02 00:39:47;;;;;;;6.43;4.75;;;;;;;;;;5133215;28;20211;-92
2023/10/02 00:42:28;;;;;;;6.88;4.65;;;;;;;;;;5133738;28;20201;-92
2023/10/02 00:44:56;;;;;;;6.18;4.75;;;;;;;;;;5133782;27;20278;-91
2023/10/02 00:47:41;;;;;;;7.22;4.35;;;;;;;;;;5133692;28;20198;-92
2023/10/02 00:50:17;;;;;;;5.18;4.50;;;;;;;;;;5133525;28;20223;-91
2023/10/02 00:52:50;;;;;;;5.80;4.50;;;;;;;;;;5133743;27;20286;-92
2023/10/02 00:55:20;;;;;;;8.18;4.97;;;;;;;;;;5133375;28;20580;-91
2023/10/02 00:57:51;;;;;;;6.88;4.28;;;;;;;;;;5133413;28;20210;-91
2023/10/02 01:00:21;;;;;;;7.85;4.65;;;;;;;;;;5133253;28;20215;-91
2023/10/02 01:02:51;;;;;;;7.88;4.93;;;;;;;;;;5133198;28;20725;-91
2023/10/02 01:05:30;;;;;;;6.10;4.65;;;;;;;;;;5121390;28;20660;-91
2023/10/02 01:07:59;;;;;;;4.90;3.85;;;;;;;;;;5097398;28;20196;-91
2023/10/02 01:10:30;;;;;;;7.55;4.82;;;;;;;;;;5097082;28;20292;-91
2023/10/02 01:13:05;;;;;;;8.27;5.43;;;;;;;;;;5092508;28;20213;-92
2023/10/02 01:15:34;;;;;;;6.30;4.68;;;;;;;;;;5092272;28;20218;-91
2023/10/02 01:20:48;;;;;;;7.22;4.32;;;;;;;;;;5095349;28;20212;-91
2023/10/02 01:23:17;;;;;;;6.47;4.78;;;;;;;;;;5096056;28;20200;-91
2023/10/02 01:25:49;;;;;;;6.35;4.07;;;;;;;;;;5095794;28;20208;-92
2023/10/02 01:28:20;;;;;;;6.13;5.35;;;;;;;;;;5095785;28;20207;-91
2023/10/02 01:30:50;;;;;;;6.47;4.82;;;;;;;;;;5095712;28;20230;-92
2023/10/02 01:33:22;;;;;;;5.20;4.68;;;;;;;;;;5096689;27;20224;-92
2023/10/02 01:35:51;;;;;;;7.45;5.13;;;;;;;;;;5104430;28;20204;-91
2023/10/02 01:38:26;;;;;;;6.22;4.47;;;;;;;;;;5096155;28;20196;-91
2023/10/02 01:41:03;;;;;;;6.95;4.57;;;;;;;;;;5095788;28;20224;-91
2023/10/02 01:43:35;;;;;;;7.22;4.28;;;;;;;;;;5095874;28;20275;-91
2023/10/02 01:46:05;;;;;;;6.57;4.85;;;;;;;;;;5095775;28;20235;-91
2023/10/02 01:48:40;;;;;;;7.50;4.63;;;;;;;;;;5095385;28;20216;-92
2023/10/02 01:51:25;;;;;;;6.03;4.22;;;;;;;;;;5095674;28;20220;-92
2023/10/02 01:53:56;;;;;;;6.00;4.35;;;;;;;;;;5095546;28;20204;-92
2023/10/02 01:56:27;;;;;;;6.15;4.22;;;;;;;;;;5095366;28;20201;-91
2023/10/02 01:59:08;;;;;;;6.95;4.60;;;;;;;;;;5098234;28;20238;-91
2023/10/02 02:01:46;;;;;;;7.85;5.05;;;;;;;;;;5100794;28;20204;-92
2023/10/02 02:04:15;;;;;;;7.30;4.18;;;;;;;;;;5112214;27;20656;-91
2023/10/02 02:06:51;;;;;;;5.85;4.47;;;;;;;;;;5135909;27;20234;-91
2023/10/02 02:09:23;;;;;;;8.07;4.35;;;;;;;;;;5135939;27;20704;-91
2023/10/02 02:12:06;;;;;;;7.90;5.43;;;;;;;;;;5135720;27;20617;-91
2023/10/02 02:14:34;;;;;;;5.03;4.43;;;;;;;;;;5140888;27;20209;-91
2023/10/02 02:17:03;;;;;;;8.98;5.20;;;;;;;;;;5160749;27;20210;-91
2023/10/02 02:19:31;;;;;;;10.15;5.63;;;;;;;;;;5161042;27;20203;-90
2023/10/02 02:21:58;;;;;;;9.30;5.60;;;;;;;;;;5158435;27;20183;-91
2023/10/02 02:24:34;;;;;;;6.93;4.60;;;;;;;;;;5137642;27;20316;-91
2023/10/02 02:27:06;;;;;;;7.07;6.07;;;;;;;;;;5145501;27;20663;-91
2023/10/02 02:29:34;;;;;;;6.70;5.35;;;;;;;;;;5136494;27;20223;-91
2023/10/02 02:32:03;;;;;;;5.75;4.38;;;;;;;;;;5137206;27;20305;-92
2023/10/02 02:34:30;;;;;;;4.18;3.22;;;;;;;;;;5115655;27;20208;-92
2023/10/02 02:36:59;;;;;;;4.47;3.28;;;;;;;;;;5137633;27;20199;-91
2023/10/02 02:39:28;;;;;;;4.40;3.53;;;;;;;;;;5135510;27;20271;-92
2023/10/02 02:44:46;;;;;;;4.80;3.92;;;;;;;;;;5135484;27;20191;-91
2023/10/02 02:47:14;;;;;;;6.43;4.38;;;;;;;;;;5135713;27;20205;-91
2023/10/02 02:49:51;;;;;;;6.32;4.90;;;;;;;;;;5135313;27;20283;-92
2023/10/02 02:52:21;;;;;;;5.78;3.97;;;;;;;;;;5135050;27;20219;-91
2023/10/02 02:54:58;;;;;;;4.25;3.55;;;;;;;;;;5135139;27;20623;-92
2023/10/02 02:57:27;;;;;;;6.25;4.07;;;;;;;;;;5135049;27;20190;-91
2023/10/02 03:00:24;;;;;;;6.13;4.10;;;;;;;;;;5135157;27;20301;-92
2023/10/02 03:02:46;;;;;;;4.93;4.40;;;;;;;;;;5134993;27;20191;-92
2023/10/02 03:05:14;;;;;;;5.82;3.92;;;;;;;;;;5116947;27;20282;-91
2023/10/02 03:07:42;;;;;;;5.32;3.58;;;;;;;;;;5113769;28;20291;-92
2023/10/02 03:10:13;;;;;;;5.13;3.83;;;;;;;;;;5114478;28;20226;-91
2023/10/02 03:12:44;;;;;;;3.55;3.17;;;;;;;;;;5113957;28;20250;-91
2023/10/02 03:15:17;;;;;;;4.35;3.50;;;;;;;;;;5113894;28;20204;-91
2023/10/02 03:17:45;;;;;;;3.97;3.40;;;;;;;;;;5114483;28;20275;-92
2023/10/02 03:20:23;;;;;;;7.15;4.55;;;;;;;;;;5113941;28;20219;-92
2023/10/02 03:22:55;;;;;;;3.85;3.22;;;;;;;;;;5113781;28;20681;-91
2023/10/02 03:25:40;;;;;;;4.88;3.83;;;;;;;;;;5114322;27;20278;-92
2023/10/02 03:28:16;;;;;;;5.55;4.18;;;;;;;;;;5114567;28;20567;-92
2023/10/02 03:30:47;;;;;;;5.47;4.13;;;;;;;;;;5114585;28;20222;-92
2023/10/02 03:33:21;;;;;;;5.70;3.78;;;;;;;;;;5117811;27;20215;-91
2023/10/02 03:35:58;;;;;;;5.30;4.18;;;;;;;;;;5114275;27;20211;-91
2023/10/02 03:38:27;;;;;;;4.88;3.72;;;;;;;;;;5113902;28;20293;-91
2023/10/02 03:40:57;;;;;;;5.82;3.97;;;;;;;;;;5113789;28;20574;-92
2023/10/02 03:46:13;;;;;;;6.13;3.97;;;;;;;;;;5087743;28;20711;-90
2023/10/02 03:48:41;;;;;;;4.18;3.75;;;;;;;;;;5087843;28;21395;-91
2023/10/02 03:51:09;;;;;;;5.85;4.07;;;;;;;;;;5087301;28;20211;-90
2023/10/02 03:53:37;;;;;;;4.65;3.55;;;;;;;;;;5088456;28;20550;-91
2023/10/02 03:58:57;;;;;;;3.72;3.05;;;;;;;;;;5073720;27;20268;-92
2023/10/02 04:01:30;;;;;;;4.88;3.88;;;;;;;;;;5098029;28;20200;-90
2023/10/02 04:04:19;;;;;;;8.32;5.07;;;;;;;;;;5091150;28;20196;-91
2023/10/02 04:06:47;;;;;;;5.05;3.80;;;;;;;;;;5088795;28;20199;-91
2023/10/02 04:09:21;;;;;;;4.68;3.63;;;;;;;;;;5090414;28;20333;-91
2023/10/02 04:11:51;;;;;;;4.32;3.70;;;;;;;;;;5089489;28;20239;-92
2023/10/02 04:14:23;;;;;;;4.65;3.83;;;;;;;;;;5087935;28;20200;-91
2023/10/02 04:17:00;;;;;;;5.05;4.15;;;;;;;;;;5090740;28;20295;-91
2023/10/02 04:19:26;;;;;;;5.93;4.03;;;;;;;;;;5091097;28;20712;-91
2023/10/02 04:21:56;;;;;;;6.30;4.97;;;;;;;;;;5091743;28;20204;-91
2023/10/02 04:24:23;;;;;;;5.50;4.30;;;;;;;;;;5093176;28;20239;-91
2023/10/02 04:26:54;;;;;;;4.38;3.95;;;;;;;;;;5093064;28;20214;-91
2023/10/02 04:29:28;;;;;;;6.00;4.15;;;;;;;;;;5092281;28;20229;-92
2023/10/02 04:32:14;;;;;;;5.47;4.32;;;;;;;;;;5090923;28;20312;-90
2023/10/02 04:34:50;;;;;;;5.95;4.10;;;;;;;;;;5089426;28;20587;-91
2023/10/02 04:37:20;;;;;;;5.53;4.05;;;;;;;;;;5087993;28;20203;-91
2023/10/02 04:40:14;;;;;;;5.20;3.65;;;;;;;;;;5088820;28;20239;-91
2023/10/02 04:43:14;;;;;;;14.23;6.93;;;;;;;;;;5087235;28;20243;-91
2023/10/02 04:45:44;;;;;;;5.68;4.03;;;;;;;;;;5087184;28;20219;-90
2023/10/02 04:48:12;;;;;;;5.40;3.72;;;;;;;;;;5086806;28;20672;-91
2023/10/02 04:50:46;;;;;;;4.22;3.72;;;;;;;;;;5088141;28;20227;-90
2023/10/02 04:53:22;;;;;;;3.70;2.72;;;;;;;;;;5087739;28;20739;-90
2023/10/02 04:56:06;;;;;;;4.85;3.45;;;;;;;;;;5092519;28;20406;-91
2023/10/02 04:58:39;;;;;;;4.15;3.38;;;;;;;;;;5092456;28;20215;-92
2023/10/02 05:04:04;;;;;;;3.30;2.95;;;;;;;;;;5047190;27;20287;-91
2023/10/02 05:06:44;;;;;;;3.55;3.15;;;;;;;;;;5093542;28;20733;-90
2023/10/02 05:09:19;;;;;;;4.78;4.28;;;;;;;;;;5093672;28;20230;-90
2023/10/02 05:11:52;;;;;;;5.50;4.13;;;;;;;;;;5095674;28;20594;-91
2023/10/02 05:14:27;;;;;;;5.68;4.18;;;;;;;;;;5093404;28;20219;-91
2023/10/02 05:17:16;;;;;;;5.32;3.90;;;;;;;;;;5091729;27;20207;-91
2023/10/02 05:20:01;;;;;;;5.75;4.25;;;;;;;;;;5090879;28;20224;-91
2023/10/02 05:22:30;;;;;;;5.40;3.60;;;;;;;;;;5090975;28;20214;-91
2023/10/02 05:24:59;;;;;;;7.65;4.20;;;;;;;;;;5092865;28;20235;-91
2023/10/02 05:27:30;;;;;;;5.93;4.80;;;;;;;;;;5091709;28;20208;-91
2023/10/02 05:29:59;;;;;;;6.55;4.63;;;;;;;;;;5093994;28;20378;-91
2023/10/02 05:32:29;;;;;;;6.88;4.85;;;;;;;;;;5095464;28;20224;-91
2023/10/02 05:35:05;;;;;;;6.53;4.22;;;;;;;;;;5092267;28;20200;-90
2023/10/02 05:37:39;;;;;;;6.22;4.18;;;;;;;;;;5093152;27;20649;-92
2023/10/02 05:43:10;;;;;;;6.13;3.85;;;;;;;;;;5081890;27;20658;-91
2023/10/02 05:45:47;;;;;;;4.80;3.67;;;;;;;;;;5097861;27;20224;-91
2023/10/02 05:48:22;;;;;;;5.35;4.05;;;;;;;;;;5120703;27;20223;-91
2023/10/02 05:50:52;;;;;;;5.15;3.95;;;;;;;;;;5127819;27;20233;-92
2023/10/02 05:53:25;;;;;;;7.90;5.25;;;;;;;;;;5136295;27;20222;-91
2023/10/02 05:56:04;;;;;;;5.60;3.80;;;;;;;;;;5136588;27;20653;-92
2023/10/02 05:58:33;;;;;;;8.00;5.57;;;;;;;;;;5135951;27;20198;-92
2023/10/02 06:01:03;;;;;;;5.20;4.18;;;;;;;;;;5136085;27;20283;-91
2023/10/02 06:03:35;;;;;;;7.93;5.22;;;;;;;;;;5123560;27;20198;-92
2023/10/02 06:06:15;;;;;;;8.07;5.28;;;;;;;;;;5132724;27;20575;-92
2023/10/02 06:08:44;;;;;;;6.85;6.13;;;;;;;;;;5147702;27;20198;-92
2023/10/02 06:11:32;;;;;;;5.07;3.75;;;;;;;;;;5137895;27;20266;-92
2023/10/02 06:14:09;;;;;;;5.97;4.40;;;;;;;;;;5137513;27;20215;-93
2023/10/02 06:16:39;;;;;;;7.30;5.28;;;;;;;;;;5138925;27;20191;-92
2023/10/02 06:19:13;;;;;;;7.18;4.90;;;;;;;;;;5135800;27;20704;-91
2023/10/02 06:22:04;;;;;;;5.18;4.70;;;;;;;;;;5136083;27;20203;-93
2023/10/02 06:24:32;;;;;;;4.93;4.10;;;;;;;;;;5136020;27;20374;-92
2023/10/02 06:27:05;;;;;;;4.88;3.15;;;;;;;;;;5135636;27;20203;-92
2023/10/02 06:29:36;;;;;;;4.80;3.25;;;;;;;;;;5135811;27;20226;-93
2023/10/02 06:32:07;;;;;;;4.32;3.38;;;;;;;;;;5126769;27;20204;-92
2023/10/02 06:34:38;;;;;;;7.78;4.53;;;;;;;;;;5120006;27;20264;-92
2023/10/02 06:37:11;;;;;;;5.50;3.95;;;;;;;;;;5109644;28;20206;-91
2023/10/02 06:39:40;;;;;;;4.78;3.75;;;;;;;;;;5119518;28;20196;-91
2023/10/02 06:42:09;;;;;;;5.45;3.55;;;;;;;;;;5119774;28;20215;-91
2023/10/02 06:44:41;;;;;;;3.10;2.72;;;;;;;;;;5110003;28;20642;-92
2023/10/02 06:47:13;;;;;;;3.45;3.00;;;;;;;;;;5094683;28;20232;-91
2023/10/02 06:49:43;;;;;;;5.47;3.92;;;;;;;;;;5094288;28;20603;-91
2023/10/02 06:52:16;;;;;;;8.75;6.25;;;;;;;;;;5094354;28;20204;-91
2023/10/02 06:54:46;;;;;;;9.68;7.18;;;;;;;;;;5094047;28;20248;-91
2023/10/02 06:57:16;;;;;;;7.95;6.68;;;;;;;;;;5098609;28;20207;-89
2023/10/02 06:59:52;;;;;;;5.38;4.55;;;;;;;;;;5102592;28;20220;-91
2023/10/02 07:02:25;;;;;;;8.60;5.85;;;;;;;;;;5105196;28;20244;-91
2023/10/02 07:04:53;;;;;;;6.15;4.97;;;;;;;;;;5113960;27;20302;-91
2023/10/02 07:07:25;;;;;;;5.85;4.55;;;;;;;;;;5141351;27;20675;-91
2023/10/02 07:09:55;;;;;;;4.90;4.20;;;;;;;;;;5141032;27;20225;-92
2023/10/02 07:12:27;;;;;;;5.70;4.50;;;;;;;;;;5139440;27;20235;-91
2023/10/02 07:15:10;;;;;;;6.47;4.90;;;;;;;;;;5134142;27;20247;-91
2023/10/02 07:17:47;;;;;;;6.13;4.78;;;;;;;;;;5135791;27;20281;-91
2023/10/02 07:20:17;;;;;;;4.93;4.13;;;;;;;;;;5134529;27;20699;-90
2023/10/02 07:22:47;;;;;;;5.38;4.38;;;;;;;;;;5134411;27;20199;-92
2023/10/02 07:25:20;;;;;;;5.45;3.97;;;;;;;;;;5134305;27;20199;-91
2023/10/02 07:27:48;;;;;;;5.05;4.15;;;;;;;;;;5134917;27;20213;-90
2023/10/02 07:30:24;;;;;;;5.82;3.78;;;;;;;;;;5134347;27;20230;-91
2023/10/02 07:32:53;;;;;;;5.80;4.57;;;;;;;;;;5118722;27;20680;-92
2023/10/02 07:35:22;;;;;;;5.72;3.85;;;;;;;;;;5133892;27;20629;-91
2023/10/02 07:37:59;;;;;;;7.63;5.40;;;;;;;;;;5134413;27;20210;-91
2023/10/02 07:40:46;;;;;;;7.13;5.05;;;;;;;;;;5134090;27;20226;-91
2023/10/02 07:43:16;;;;;;;6.90;4.97;;;;;;;;;;5134513;27;20202;-92
2023/10/02 07:45:44;;;;;;;5.82;4.30;;;;;;;;;;5139304;27;20217;-91
2023/10/02 07:48:13;;;;;;;4.70;3.83;;;;;;;;;;5134163;27;20198;-91
2023/10/02 07:50:41;;;;;;;4.40;3.50;;;;;;;;;;5134298;27;20226;-92
2023/10/02 07:53:11;;;;;;;4.85;3.88;;;;;;;;;;5134440;27;20282;-90
2023/10/02 07:55:46;;;;;;;11.35;5.05;;;;;;;;;;5134149;27;20237;-92
2023/10/02 07:58:17;;;;;;;10.30;6.57;;;;;;;;;;5134272;27;20671;-91
2023/10/02 08:00:49;;;;;;;6.35;4.57;;;;;;;;;;5134026;27;20221;-91
2023/10/02 08:03:36;;;;;;;5.82;5.03;;;;;;;;;;5118266;27;20224;-92
2023/10/02 08:11:52;;;;;;;4.80;3.92;;;;;;;;;;5090559;28;20203;-91
2023/10/02 08:14:38;;;;;;;6.72;5.03;;;;;;;;;;5090989;28;20264;-91
2023/10/02 08:17:18;;;;;;;5.88;4.70;;;;;;;;;;5091258;28;20211;-92
2023/10/02 08:19:54;;;;;;;5.38;4.47;;;;;;;;;;5091340;28;20425;-91
2023/10/02 08:22:23;;;;;;;6.53;4.63;;;;;;;;;;5091346;28;20207;-91
2023/10/02 08:24:52;;;;;;;6.97;5.72;;;;;;;;;;5091544;28;20253;-91
2023/10/02 08:27:20;;;;;;;10.52;6.10;;;;;;;;;;5091377;28;20234;-91
2023/10/02 08:29:47;;;;;;;6.32;5.05;;;;;;;;;;5090940;28;20248;-92
2023/10/02 08:32:28;;;;;;;6.57;5.45;;;;;;;;;;5090813;28;20204;-91
2023/10/02 08:34:56;;;;;;;10.35;6.03;;;;;;;;;;5103014;28;20206;-90
2023/10/02 08:37:25;;;;;;;7.07;5.15;;;;;;;;;;5111314;28;20653;-91
2023/10/02 08:39:54;;;;;;;8.77;7.25;;;;;;;;;;5111851;28;20235;-91
2023/10/02 08:42:24;;;;;;;9.10;6.07;;;;;;;;;;5110771;28;20280;-91
2023/10/02 08:44:58;;;;;;;7.50;5.32;;;;;;;;;;5110901;28;20223;-92
2023/10/02 08:47:25;;;;;;;8.73;6.22;;;;;;;;;;5111024;28;20219;-91
2023/10/02 08:50:03;;;;;;;7.38;4.95;;;;;;;;;;5111826;28;20302;-91
2023/10/02 08:52:38;;;;;;;8.38;6.32;;;;;;;;;;5110897;28;20206;-91
2023/10/02 08:55:35;;;;;;;8.30;5.80;;;;;;;;;;5111222;28;20260;-91
2023/10/02 08:58:15;;;;;;;7.70;6.15;;;;;;;;;;5110492;28;20214;-91
2023/10/02 09:01:20;;;;;;;7.93;6.22;;;;;;;;;;5110871;28;20302;-91
2023/10/02 09:04:21;;;;;;;10.82;6.22;;;;;;;;;;5102679;28;20263;-91
2023/10/02 09:06:53;;;;;;;8.55;5.60;;;;;;;;;;5110762;28;20653;-90
2023/10/02 09:09:26;;;;;;;6.15;5.00;;;;;;;;;;5110570;28;20223;-91
2023/10/02 09:11:58;;;;;;;6.22;5.07;;;;;;;;;;5110884;28;20199;-90
2023/10/02 09:14:42;;;;;;;11.13;6.90;;;;;;;;;;5110902;28;20215;-90
2023/10/02 09:17:19;;;;;;;9.98;6.60;;;;;;;;;;5110983;28;20263;-91
2023/10/02 09:19:57;;;;;;;10.77;6.80;;;;;;;;;;5100337;28;20212;-91
2023/10/02 09:22:27;;;;;;;7.35;5.57;;;;;;;;;;5096746;28;20263;-91
2023/10/02 09:25:15;;;;;;;12.18;6.90;;;;;;;;;;5096654;28;20291;-91
2023/10/02 09:28:03;;;;;;;8.93;6.53;;;;;;;;;;5096341;28;20220;-91
2023/10/02 09:30:38;;;;;;;8.57;5.70;;;;;;;;;;5096719;28;20224;-90
2023/10/02 09:33:14;;;;;;;6.90;5.38;;;;;;;;;;5088484;28;20211;-90
2023/10/02 09:35:43;;;;;;;7.03;5.10;;;;;;;;;;5096882;28;20628;-92
2023/10/02 09:38:13;;;;;;;7.40;6.53;;;;;;;;;;5096619;28;20200;-92
2023/10/02 09:41:14;;;;;;;8.25;6.43;;;;;;;;;;5096850;28;20230;-91
2023/10/02 09:43:44;;;;;;;11.38;8.13;;;;;;;;;;5095493;28;20252;-92
2023/10/02 09:46:16;;;;;;;7.05;5.95;;;;;;;;;;5095487;28;20223;-91
2023/10/02 09:48:47;;;;;;;9.43;6.78;;;;;;;;;;5095086;28;20224;-91
2023/10/02 09:51:19;;;;;;;6.78;5.90;;;;;;;;;;5095355;28;20192;-92
2023/10/02 09:54:04;;;;;;;9.68;6.97;;;;;;;;;;5095183;28;20197;-91
2023/10/02 09:56:51;;;;;;;10.05;7.13;;;;;;;;;;5095438;28;20561;-91
2023/10/02 09:59:22;;;;;;;8.95;7.35;;;;;;;;;;5095085;28;20242;-91
2023/10/02 10:05:45;;;;;;;7.22;6.00;;;;;;;;;;5055030;28;20205;-91
2023/10/02 10:08:33;;;;;;;10.23;7.65;;;;;;;;;;5100003;28;20220;-91
2023/10/02 10:11:10;;;;;;;9.55;7.85;;;;;;;;;;5094942;28;20235;-91
2023/10/02 10:13:46;;;;;;;8.70;6.88;;;;;;;;;;5103161;28;20203;-91
2023/10/02 10:16:38;;;;;;;8.23;5.70;;;;;;;;;;5095019;28;20204;-92
2023/10/02 10:19:30;;;;;;;7.03;5.72;;;;;;;;;;5094788;28;20227;-91
2023/10/02 10:22:00;;;;;;;7.35;5.55;;;;;;;;;;5099108;28;20226;-92
2023/10/02 10:25:22;;;;;;;10.07;7.22;;;;;;;;;;5094950;28;20200;-91
2023/10/02 10:27:54;;;;;;;9.00;5.88;;;;;;;;;;5094755;28;20203;-91
2023/10/02 10:30:56;;;;;;;8.55;6.57;;;;;;;;;;5094005;28;20247;-91
2023/10/02 10:33:40;;;;;;;10.73;7.28;;;;;;;;;;5078538;28;20207;-91
2023/10/02 10:36:38;;;;;;;9.32;7.72;;;;;;;;;;5094325;28;20199;-91
2023/10/02 10:39:50;;;;;;;8.98;6.38;;;;;;;;;;5091118;28;20216;-90
2023/10/02 10:42:23;;;;;;;11.18;7.07;;;;;;;;;;5094498;28;20201;-91
2023/10/02 10:44:52;;;;;;;11.38;7.47;;;;;;;;;;5094889;28;20622;-91
2023/10/02 10:47:23;;;;;;;10.18;8.10;;;;;;;;;;5094279;28;20203;-91
2023/10/02 10:50:11;;;;;;;9.82;7.13;;;;;;;;;;5094263;28;20216;-91
2023/10/02 10:52:44;;;;;;;8.32;6.60;;;;;;;;;;5094538;28;20211;-92
2023/10/02 10:55:32;;;;;;;7.80;6.07;;;;;;;;;;5094086;28;20208;-92
2023/10/02 10:58:01;;;;;;;7.00;6.03;;;;;;;;;;5093898;28;20801;-92
2023/10/02 11:00:31;;;;;;;10.77;6.68;;;;;;;;;;5107551;28;20220;-90
2023/10/02 11:03:08;;;;;;;7.32;5.95;;;;;;;;;;5118977;28;20188;-90
2023/10/02 11:05:37;;;;;;;9.23;6.82;;;;;;;;;;5118844;28;20196;-91
2023/10/02 11:08:25;;;;;;;8.15;7.05;;;;;;;;;;5108346;28;20204;-92
2023/10/02 11:11:06;;;;;;;6.90;5.43;;;;;;;;;;5094331;28;20243;-92
2023/10/02 11:13:53;;;;;;;8.32;6.80;;;;;;;;;;5094134;28;20200;-92
2023/10/02 11:16:33;;;;;;;8.98;6.85;;;;;;;;;;5094049;28;20666;-91
2023/10/02 11:19:34;;;;;;;8.02;6.65;;;;;;;;;;5093542;28;20220;-91
2023/10/02 11:22:15;;;;;;;7.43;6.18;;;;;;;;;;5093600;28;20261;-92
2023/10/02 11:24:49;;;;;;;9.82;7.07;;;;;;;;;;5093649;28;20645;-92
2023/10/02 11:27:17;;;;;;;8.15;6.68;;;;;;;;;;5093362;28;20196;-90
2023/10/02 11:30:00;;;;;;;9.32;6.72;;;;;;;;;;5093082;28;20230;-91
2023/10/02 11:32:50;;;;;;;9.90;6.88;;;;;;;;;;5085777;28;20236;-91
2023/10/02 11:35:18;;;;;;;10.82;7.40;;;;;;;;;;5088264;28;20208;-91
2023/10/02 11:37:51;;;;;;;9.13;6.60;;;;;;;;;;5093375;28;20283;-91
2023/10/02 11:40:24;;;;;;;8.55;6.97;;;;;;;;;;5093558;28;20314;-91
2023/10/02 11:42:52;;;;;;;7.95;6.95;;;;;;;;;;5093475;28;20196;-91
2023/10/02 11:45:19;;;;;;;7.90;7.10;;;;;;;;;;5093512;28;20232;-91
2023/10/02 11:47:47;;;;;;;10.32;7.18;;;;;;;;;;5093606;28;20210;-91
2023/10/02 11:50:15;;;;;;;7.97;6.13;;;;;;;;;;5093084;28;20307;-91
2023/10/02 11:52:44;;;;;;;8.95;6.25;;;;;;;;;;5093232;28;20204;-91
2023/10/02 11:55:17;;;;;;;6.78;5.65;;;;;;;;;;5093629;28;20201;-91
2023/10/02 11:57:45;;;;;;;7.78;6.18;;;;;;;;;;5094726;28;20202;-91
2023/10/02 12:00:16;;;;;;;7.15;6.25;;;;;;;;;;5093254;28;20297;-92
2023/10/02 12:02:45;;;;;;;8.20;6.60;;;;;;;;;;5084598;28;20730;-91
2023/10/02 12:05:12;;;;;;;7.78;6.82;;;;;;;;;;5093331;28;20208;-91
2023/10/02 12:07:41;;;;;;;7.13;5.47;;;;;;;;;;5103372;28;20280;-92
2023/10/02 12:10:14;;;;;;;7.03;5.50;;;;;;;;;;5092950;28;20224;-91
2023/10/02 12:12:45;;;;;;;8.70;6.10;;;;;;;;;;5093383;28;20658;-91
2023/10/02 12:15:14;;;;;;;6.28;4.97;;;;;;;;;;5092973;28;20261;-91
2023/10/02 12:17:41;;;;;;;6.22;4.65;;;;;;;;;;5093412;28;20200;-91
2023/10/02 12:20:16;;;;;;;6.57;4.75;;;;;;;;;;5093014;28;20311;-91
2023/10/02 12:22:46;;;;;;;7.40;5.03;;;;;;;;;;5092805;28;20218;-91
2023/10/02 12:25:14;;;;;;;6.20;5.60;;;;;;;;;;5093167;28;20207;-91
2023/10/02 12:27:44;;;;;;;8.60;5.00;;;;;;;;;;5092957;28;20200;-91
2023/10/02 12:30:12;;;;;;;6.65;4.80;;;;;;;;;;5092477;28;20220;-91
2023/10/02 12:32:41;;;;;;;5.70;5.13;;;;;;;;;;5084311;28;20201;-91
2023/10/02 12:35:09;;;;;;;8.55;5.38;;;;;;;;;;5092950;28;20674;-91
2023/10/02 12:37:37;;;;;;;7.47;5.38;;;;;;;;;;5092466;28;20283;-91
2023/10/02 12:40:11;;;;;;;6.68;5.70;;;;;;;;;;5092622;28;20308;-91
2023/10/02 12:42:39;;;;;;;7.57;5.65;;;;;;;;;;5092909;28;20261;-91
2023/10/02 12:45:10;;;;;;;7.00;5.32;;;;;;;;;;5092786;28;20286;-91
2023/10/02 12:47:38;;;;;;;7.18;5.45;;;;;;;;;;5092195;28;20751;-91
2023/10/02 12:50:10;;;;;;;6.00;5.20;;;;;;;;;;5092766;28;20229;-91
2023/10/02 12:52:38;;;;;;;7.55;6.05;;;;;;;;;;5093003;28;20204;-91
2023/10/02 12:55:07;;;;;;;7.53;5.85;;;;;;;;;;5095743;28;20201;-91
2023/10/02 12:57:37;;;;;;;6.45;5.57;;;;;;;;;;5096548;28;20701;-90
2023/10/02 13:00:17;;;;;;;7.25;5.82;;;;;;;;;;5096580;28;20315;-92
2023/10/02 13:02:45;;;;;;;9.32;5.70;;;;;;;;;;5087423;28;20553;-91
2023/10/02 13:05:12;;;;;;;6.97;5.65;;;;;;;;;;5082154;28;20622;-91
2023/10/02 13:07:41;;;;;;;8.20;6.10;;;;;;;;;;5076297;28;20291;-91
2023/10/02 13:10:10;;;;;;;7.82;5.78;;;;;;;;;;5075952;28;20229;-90
2023/10/02 13:12:38;;;;;;;7.07;6.35;;;;;;;;;;5076552;28;20192;-91
2023/10/02 13:15:13;;;;;;;9.45;7.40;;;;;;;;;;5075478;28;20231;-91
2023/10/02 13:17:41;;;;;;;9.82;6.15;;;;;;;;;;5075644;28;20234;-91
2023/10/02 13:20:10;;;;;;;7.32;5.70;;;;;;;;;;5075420;28;20678;-92
2023/10/02 13:22:38;;;;;;;7.80;6.55;;;;;;;;;;5075898;28;20208;-91
2023/10/02 13:25:11;;;;;;;7.93;6.15;;;;;;;;;;5075648;28;20284;-91
2023/10/02 13:27:39;;;;;;;7.25;5.32;;;;;;;;;;5075980;28;20262;-91
2023/10/02 13:30:12;;;;;;;5.70;4.65;;;;;;;;;;5076811;28;20280;-91
2023/10/02 13:32:40;;;;;;;5.05;4.32;;;;;;;;;;5084162;28;20211;-91
2023/10/02 13:35:10;;;;;;;7.90;4.97;;;;;;;;;;5088739;28;20203;-91
2023/10/02 13:37:39;;;;;;;6.03;4.43;;;;;;;;;;5095849;28;20200;-91
2023/10/02 13:40:18;;;;;;;6.85;5.05;;;;;;;;;;5095467;28;20216;-91
2023/10/02 13:42:49;;;;;;;5.53;4.53;;;;;;;;;;5106544;28;20204;-91
2023/10/02 13:45:19;;;;;;;7.10;4.93;;;;;;;;;;5103525;28;20196;-91
2023/10/02 13:47:48;;;;;;;5.30;4.47;;;;;;;;;;5103977;28;20196;-90
2023/10/02 13:50:16;;;;;;;5.93;4.47;;;;;;;;;;5096746;28;20231;-91
2023/10/02 13:52:44;;;;;;;5.85;4.88;;;;;;;;;;5097117;28;20210;-92
2023/10/02 13:55:22;;;;;;;6.25;5.28;;;;;;;;;;5096022;28;20660;-90
2023/10/02 13:57:50;;;;;;;5.07;4.40;;;;;;;;;;5095898;28;20243;-91
2023/10/02 14:00:21;;;;;;;5.85;4.20;;;;;;;;;;5095801;28;20212;-91
2023/10/02 14:02:49;;;;;;;5.50;3.35;;;;;;;;;;5092900;28;20204;-91
2023/10/02 14:05:18;;;;;;;5.03;4.32;;;;;;;;;;5089525;28;20571;-91
2023/10/02 14:07:46;;;;;;;4.63;4.03;;;;;;;;;;5096363;28;20216;-92
2023/10/02 14:10:16;;;;;;;6.68;4.97;;;;;;;;;;5103975;28;20681;-92
2023/10/02 14:12:45;;;;;;;4.30;3.90;;;;;;;;;;5104097;28;20223;-91
2023/10/02 14:15:16;;;;;;;5.38;4.50;;;;;;;;;;5095217;28;20548;-91
2023/10/02 14:17:46;;;;;;;6.97;5.45;;;;;;;;;;5095138;28;20204;-90
2023/10/02 14:20:15;;;;;;;5.15;4.43;;;;;;;;;;5095102;28;20316;-91
2023/10/02 14:22:46;;;;;;;6.78;4.97;;;;;;;;;;5094803;28;20284;-90
2023/10/02 14:25:16;;;;;;;6.78;5.28;;;;;;;;;;5103827;28;20204;-91
2023/10/02 14:27:45;;;;;;;6.30;4.63;;;;;;;;;;5095822;28;20231;-90
2023/10/02 14:30:13;;;;;;;7.13;5.75;;;;;;;;;;5095224;28;20299;-91
2023/10/02 14:32:46;;;;;;;7.97;5.20;;;;;;;;;;5093599;28;20204;-91
2023/10/02 14:35:15;;;;;;;5.95;5.32;;;;;;;;;;5088282;28;20239;-91
2023/10/02 14:37:43;;;;;;;6.43;4.70;;;;;;;;;;5094678;28;20313;-91
2023/10/02 14:40:19;;;;;;;6.25;5.22;;;;;;;;;;5094362;28;20223;-91
2023/10/02 14:42:49;;;;;;;6.68;4.93;;;;;;;;;;5094940;28;20212;-91
2023/10/02 14:45:16;;;;;;;6.88;5.38;;;;;;;;;;5094538;28;20196;-90
2023/10/02 14:47:45;;;;;;;6.43;5.13;;;;;;;;;;5094482;28;20283;-91
2023/10/02 14:50:16;;;;;;;7.03;4.95;;;;;;;;;;5094591;28;20216;-91
2023/10/02 14:52:44;;;;;;;5.57;4.50;;;;;;;;;;5094600;28;20686;-91
2023/10/02 14:55:17;;;;;;;5.10;4.60;;;;;;;;;;5094699;28;20665;-91
2023/10/02 14:57:46;;;;;;;4.55;4.10;;;;;;;;;;5094578;28;20587;-90
2023/10/02 15:00:15;;;;;;;6.40;5.28;;;;;;;;;;5094244;28;20251;-91
2023/10/02 15:02:43;;;;;;;6.40;4.68;;;;;;;;;;5094084;28;20299;-90
2023/10/02 15:05:15;;;;;;;4.70;3.97;;;;;;;;;;5080603;28;20201;-91
2023/10/02 15:07:45;;;;;;;6.35;4.60;;;;;;;;;;5073946;28;20216;-91
2023/10/02 15:10:15;;;;;;;5.90;4.60;;;;;;;;;;5073621;28;20231;-91
2023/10/02 15:12:42;;;;;;;6.35;5.47;;;;;;;;;;5073443;28;20228;-91
2023/10/02 15:15:14;;;;;;;7.10;5.30;;;;;;;;;;5073477;28;20279;-91
2023/10/02 15:17:46;;;;;;;6.85;5.50;;;;;;;;;;5097121;28;20252;-91
2023/10/02 15:20:16;;;;;;;7.50;6.20;;;;;;;;;;5098165;28;20205;-90
2023/10/02 15:22:47;;;;;;;6.40;5.68;;;;;;;;;;5098267;28;20265;-90
2023/10/02 15:25:15;;;;;;;6.00;4.90;;;;;;;;;;5077800;28;20671;-91
2023/10/02 15:27:45;;;;;;;7.07;5.60;;;;;;;;;;5074136;28;20641;-91
2023/10/02 15:30:15;;;;;;;8.00;5.75;;;;;;;;;;5074355;28;20694;-92
2023/10/02 15:32:44;;;;;;;5.68;5.05;;;;;;;;;;5083352;28;20220;-90
2023/10/02 15:35:12;;;;;;;5.43;4.80;;;;;;;;;;5093965;28;20218;-91
2023/10/02 15:37:42;;;;;;;6.22;4.82;;;;;;;;;;5093872;28;20219;-91
2023/10/02 15:40:12;;;;;;;6.15;4.57;;;;;;;;;;5094130;28;20223;-91
2023/10/02 15:42:41;;;;;;;10.15;5.18;;;;;;;;;;5093837;28;20578;-91
2023/10/02 15:45:15;;;;;;;8.55;5.80;;;;;;;;;;5094081;28;20722;-91
2023/10/02 15:47:44;;;;;;;4.63;4.03;;;;;;;;;;5093894;28;20216;-91